CheckWX is a tool to help pilots better visualize weather data.  It is not intended as a substitute for an official pre-flight weather briefing.

03:03:51 UTC

NLWW METAR
Hihifo Airport
Wallis Island, Samoa
Current

34 mins ago

NLWW 170230Z 15005KT 110V200 8000 BKN019 BKN043 28/25 Q0998 TEMPO 3000 SHRA BKN012 FEW018CB
Observed
Feb-17 @ 02:30 UTC
Wind
  • 150° at 5 KTS
Visibility
8,000 meters
Flight Rules
MVFR
Cloud Levels
  • Broken at 1,900' AGL
  • Broken at 4,300' AGL
Temperature
28°C / 82°F
Dewpoint
25°C / 77°F
Heat Index
32°C / 90°F
Humidity
84%
Altimeter
29.47" Hg
Pressure
997.92 hPa
Previous

2 hours ago

NLWW 170130Z AUTO 13009KT 090V160 9999 SCT020/// BKN029/// OVC038/// 28/25 Q0998 TEMPO 4000 SHRA BKN012 FEW018CB SCT020TCU
Observed
Feb-17 @ 01:30 UTC
Wind
  • 130° at 9 KTS
Visibility
10,000+ meters
Flight Rules
MVFR
Cloud Levels
  • Scattered at 2,000' AGL
  • Broken at 2,900' AGL
  • Overcast at 3,800' AGL
Temperature
28°C / 82°F
Dewpoint
25°C / 77°F
Heat Index
32°C / 90°F
Humidity
84%
Altimeter
29.47" Hg
Pressure
997.92 hPa
Previous

2 hours ago

NLWW 170100Z 14008KT 100V190 9999 BKN019 SCT073 30/26 Q0999 TEMPO 3000 SHRA BKN012 FEW018CB
Observed
Feb-17 @ 01:00 UTC
Wind
  • 140° at 8 KTS
Visibility
10,000+ meters
Flight Rules
MVFR
Cloud Levels
  • Broken at 1,900' AGL
  • Scattered at 7,300' AGL
Temperature
30°C / 86°F
Dewpoint
26°C / 79°F
Heat Index
37°C / 99°F
Humidity
79%
Altimeter
29.5" Hg
Pressure
998.92 hPa